sensor_id;sensor_type;location;lat;lon;timestamp;P1;durP1;ratioP1;P2;durP2;ratioP2
12842;SDS011;35724;49.324;-123.118;2023-03-23T00:04:08;2.25;;;1.98;;
12842;SDS011;35724;49.324;-123.118;2023-03-23T00:14:17;1.80;;;1.70;;
12842;SDS011;35724;49.324;-123.118;2023-03-23T00:24:29;1.75;;;1.63;;
12842;SDS011;35724;49.324;-123.118;2023-03-23T00:34:35;1.80;;;1.70;;
12842;SDS011;35724;49.324;-123.118;2023-03-23T00:44:42;1.50;;;1.40;;
12842;SDS011;35724;49.324;-123.118;2023-03-23T00:54:49;2.08;;;1.65;;
12842;SDS011;35724;49.324;-123.118;2023-03-23T01:04:57;2.10;;;1.90;;
12842;SDS011;35724;49.324;-123.118;2023-03-23T01:15:08;1.83;;;1.70;;
12842;SDS011;35724;49.324;-123.118;2023-03-23T01:25:20;1.58;;;1.45;;
12842;SDS011;35724;49.324;-123.118;2023-03-23T01:35:28;1.85;;;1.70;;
12842;SDS011;35724;49.324;-123.118;2023-03-23T01:56:57;1.52;;;1.30;;
12842;SDS011;35724;49.324;-123.118;2023-03-23T02:08:45;1.40;;;1.30;;
12842;SDS011;35724;49.324;-123.118;2023-03-23T02:18:59;1.48;;;1.38;;
12842;SDS011;35724;49.324;-123.118;2023-03-23T02:29:39;1.48;;;1.38;;
12842;SDS011;35724;49.324;-123.118;2023-03-23T02:51:33;2.55;;;1.70;;
12842;SDS011;35724;49.324;-123.118;2023-03-23T03:01:51;2.75;;;1.35;;
12842;SDS011;35724;49.324;-123.118;2023-03-23T03:12:10;1.67;;;1.40;;
12842;SDS011;35724;49.324;-123.118;2023-03-23T03:33:37;1.20;;;1.13;;
12842;SDS011;35724;49.324;-123.118;2023-03-23T03:54:39;1.38;;;1.25;;
12842;SDS011;35724;49.324;-123.118;2023-03-23T04:04:56;1.40;;;1.30;;
12842;SDS011;35724;49.324;-123.118;2023-03-23T04:50:49;1.60;;;1.40;;
12842;SDS011;35724;49.324;-123.118;2023-03-23T05:11:41;3.40;;;1.65;;
12842;SDS011;35724;49.324;-123.118;2023-03-23T05:21:49;1.80;;;1.70;;
12842;SDS011;35724;49.324;-123.118;2023-03-23T05:32:02;3.05;;;1.80;;
12842;SDS011;35724;49.324;-123.118;2023-03-23T05:54:31;2.28;;;1.60;;
12842;SDS011;35724;49.324;-123.118;2023-03-23T06:04:42;2.00;;;1.80;;
12842;SDS011;35724;49.324;-123.118;2023-03-23T06:14:59;2.83;;;2.05;;
12842;SDS011;35724;49.324;-123.118;2023-03-23T06:25:26;2.08;;;1.88;;
12842;SDS011;35724;49.324;-123.118;2023-03-23T06:35:38;2.30;;;1.40;;
12842;SDS011;35724;49.324;-123.118;2023-03-23T06:45:57;2.15;;;1.70;;
12842;SDS011;35724;49.324;-123.118;2023-03-23T06:56:07;1.90;;;1.70;;
12842;SDS011;35724;49.324;-123.118;2023-03-23T07:06:44;1.80;;;1.70;;
12842;SDS011;35724;49.324;-123.118;2023-03-23T07:16:52;2.20;;;1.42;;
12842;SDS011;35724;49.324;-123.118;2023-03-23T07:26:58;1.40;;;1.30;;
12842;SDS011;35724;49.324;-123.118;2023-03-23T07:37:08;1.50;;;1.40;;
12842;SDS011;35724;49.324;-123.118;2023-03-23T07:47:16;1.30;;;1.20;;
12842;SDS011;35724;49.324;-123.118;2023-03-23T07:57:25;1.40;;;1.30;;
12842;SDS011;35724;49.324;-123.118;2023-03-23T08:07:32;1.35;;;1.10;;
12842;SDS011;35724;49.324;-123.118;2023-03-23T08:18:00;1.30;;;1.13;;
12842;SDS011;35724;49.324;-123.118;2023-03-23T08:28:23;1.30;;;1.20;;
12842;SDS011;35724;49.324;-123.118;2023-03-23T08:38:52;1.20;;;1.10;;
12842;SDS011;35724;49.324;-123.118;2023-03-23T08:49:27;1.58;;;1.20;;
12842;SDS011;35724;49.324;-123.118;2023-03-23T08:59:52;1.15;;;1.05;;
12842;SDS011;35724;49.324;-123.118;2023-03-23T09:10:10;1.75;;;1.00;;
12842;SDS011;35724;49.324;-123.118;2023-03-23T09:20:19;1.00;;;1.00;;
12842;SDS011;35724;49.324;-123.118;2023-03-23T09:30:26;1.10;;;1.00;;
12842;SDS011;35724;49.324;-123.118;2023-03-23T09:40:38;1.20;;;1.10;;
12842;SDS011;35724;49.324;-123.118;2023-03-23T09:50:51;1.30;;;1.20;;
12842;SDS011;35724;49.324;-123.118;2023-03-23T10:01:05;1.23;;;1.13;;
12842;SDS011;35724;49.324;-123.118;2023-03-23T10:11:16;1.23;;;1.13;;
12842;SDS011;35724;49.324;-123.118;2023-03-23T10:21:28;1.08;;;1.00;;
12842;SDS011;35724;49.324;-123.118;2023-03-23T10:31:36;1.35;;;1.25;;
12842;SDS011;35724;49.324;-123.118;2023-03-23T10:41:44;1.10;;;1.00;;
12842;SDS011;35724;49.324;-123.118;2023-03-23T10:51:53;1.15;;;1.02;;
12842;SDS011;35724;49.324;-123.118;2023-03-23T11:02:10;1.20;;;1.10;;
12842;SDS011;35724;49.324;-123.118;2023-03-23T11:12:23;0.80;;;0.80;;
12842;SDS011;35724;49.324;-123.118;2023-03-23T11:22:32;0.85;;;0.85;;
12842;SDS011;35724;49.324;-123.118;2023-03-23T11:32:42;0.98;;;0.90;;
12842;SDS011;35724;49.324;-123.118;2023-03-23T11:42:56;0.70;;;0.70;;
12842;SDS011;35724;49.324;-123.118;2023-03-23T11:53:06;1.00;;;0.80;;
12842;SDS011;35724;49.324;-123.118;2023-03-23T12:03:30;0.70;;;0.70;;
12842;SDS011;35724;49.324;-123.118;2023-03-23T12:13:51;0.63;;;0.63;;
12842;SDS011;35724;49.324;-123.118;2023-03-23T12:24:14;0.70;;;0.70;;
12842;SDS011;35724;49.324;-123.118;2023-03-23T12:34:29;0.52;;;0.52;;
12842;SDS011;35724;49.324;-123.118;2023-03-23T12:44:45;0.52;;;0.52;;
12842;SDS011;35724;49.324;-123.118;2023-03-23T12:54:54;0.63;;;0.60;;
12842;SDS011;35724;49.324;-123.118;2023-03-23T13:05:08;0.68;;;0.68;;
12842;SDS011;35724;49.324;-123.118;2023-03-23T13:15:24;0.80;;;0.60;;
12842;SDS011;35724;49.324;-123.118;2023-03-23T13:25:42;1.08;;;1.00;;
12842;SDS011;35724;49.324;-123.118;2023-03-23T13:35:52;0.82;;;0.82;;
12842;SDS011;35724;49.324;-123.118;2023-03-23T13:46:08;0.77;;;0.77;;
12842;SDS011;35724;49.324;-123.118;2023-03-23T13:56:16;0.90;;;0.90;;
12842;SDS011;35724;49.324;-123.118;2023-03-23T14:06:25;0.60;;;0.60;;
12842;SDS011;35724;49.324;-123.118;2023-03-23T14:16:39;0.60;;;0.60;;
12842;SDS011;35724;49.324;-123.118;2023-03-23T14:26:48;0.70;;;0.65;;
12842;SDS011;35724;49.324;-123.118;2023-03-23T14:36:54;1.05;;;0.60;;
12842;SDS011;35724;49.324;-123.118;2023-03-23T14:47:02;0.57;;;0.57;;
12842;SDS011;35724;49.324;-123.118;2023-03-23T14:57:11;0.50;;;0.50;;
12842;SDS011;35724;49.324;-123.118;2023-03-23T15:18:25;1.08;;;0.90;;
12842;SDS011;35724;49.324;-123.118;2023-03-23T15:28:44;1.00;;;0.80;;
12842;SDS011;35724;49.324;-123.118;2023-03-23T15:39:01;1.40;;;0.90;;
12842;SDS011;35724;49.324;-123.118;2023-03-23T15:50:04;1.00;;;0.80;;
12842;SDS011;35724;49.324;-123.118;2023-03-23T16:11:23;1.20;;;1.10;;
12842;SDS011;35724;49.324;-123.118;2023-03-23T16:21:49;2.15;;;1.60;;
12842;SDS011;35724;49.324;-123.118;2023-03-23T16:32:01;2.65;;;1.58;;
12842;SDS011;35724;49.324;-123.118;2023-03-23T16:42:09;3.80;;;0.90;;
12842;SDS011;35724;49.324;-123.118;2023-03-23T16:52:18;1.00;;;0.90;;
12842;SDS011;35724;49.324;-123.118;2023-03-23T17:13:31;1.42;;;0.90;;
12842;SDS011;35724;49.324;-123.118;2023-03-23T17:35:08;0.70;;;0.70;;
12842;SDS011;35724;49.324;-123.118;2023-03-23T17:45:20;0.70;;;0.70;;
12842;SDS011;35724;49.324;-123.118;2023-03-23T18:16:40;1.50;;;0.90;;
12842;SDS011;35724;49.324;-123.118;2023-03-23T18:26:47;4.22;;;0.88;;
12842;SDS011;35724;49.324;-123.118;2023-03-23T18:36:59;1.17;;;0.80;;
12842;SDS011;35724;49.324;-123.118;2023-03-23T18:47:06;1.48;;;1.10;;
12842;SDS011;35724;49.324;-123.118;2023-03-23T18:57:14;1.10;;;1.00;;
12842;SDS011;35724;49.324;-123.118;2023-03-23T19:18:18;0.95;;;0.70;;
12842;SDS011;35724;49.324;-123.118;2023-03-23T19:28:26;0.88;;;0.80;;
12842;SDS011;35724;49.324;-123.118;2023-03-23T19:38:54;2.10;;;1.30;;
12842;SDS011;35724;49.324;-123.118;2023-03-23T19:49:05;0.85;;;0.85;;
12842;SDS011;35724;49.324;-123.118;2023-03-23T19:59:14;2.58;;;1.42;;
12842;SDS011;35724;49.324;-123.118;2023-03-23T20:21:51;1.58;;;1.13;;
12842;SDS011;35724;49.324;-123.118;2023-03-23T20:43:46;0.80;;;0.80;;
12842;SDS011;35724;49.324;-123.118;2023-03-23T20:54:02;0.80;;;0.80;;
12842;SDS011;35724;49.324;-123.118;2023-03-23T21:05:24;1.67;;;1.10;;
12842;SDS011;35724;49.324;-123.118;2023-03-23T21:15:38;1.60;;;1.10;;
12842;SDS011;35724;49.324;-123.118;2023-03-23T21:25:48;3.78;;;1.13;;
12842;SDS011;35724;49.324;-123.118;2023-03-23T22:10:40;0.77;;;0.70;;
12842;SDS011;35724;49.324;-123.118;2023-03-23T22:56:40;0.60;;;0.60;;
12842;SDS011;35724;49.324;-123.118;2023-03-23T23:41:51;1.40;;;1.30;;
